Time;durP1;ratioP1;P1;durP2;ratioP2;P2;SDS_P1;SDS_P2;PMS_P1;PMS_P2;Temp;Humidity;BMP_temperature;BMP_pressure;BME280_temperature;BME280_humidity;BME280_pressure;Samples;Min_cycle;Max_cycle;Signal;HPM_P1;HPM_P2
2022/06/10 00:00:03;;;;;;;0.00;0.00;;;14.50;78.00;;;;;;5036972;28;20474;-76
2022/06/10 00:02:29;;;;;;;0.00;0.00;;;14.50;77.80;;;;;;5037960;28;20057;-76
2022/06/10 00:04:55;;;;;;;0.00;0.00;;;14.50;77.90;;;;;;5062055;28;20060;-76
2022/06/10 00:07:21;;;;;;;0.00;0.00;;;14.40;78.10;;;;;;5036604;28;20049;-76
2022/06/10 00:09:46;;;;;;;0.00;0.00;;;14.40;78.10;;;;;;5049413;28;20045;-76
2022/06/10 00:12:12;;;;;;;0.00;0.00;;;14.40;78.10;;;;;;5045566;28;20064;-76
2022/06/10 00:14:37;;;;;;;0.00;0.00;;;14.40;78.30;;;;;;5052871;28;20492;-76
2022/06/10 00:17:03;;;;;;;0.00;0.00;;;14.30;78.40;;;;;;5040347;28;20045;-76
2022/06/10 00:19:30;;;;;;;0.00;0.00;;;14.30;78.40;;;;;;5032649;28;20103;-76
2022/06/10 00:21:56;;;;;;;0.00;0.00;;;14.30;78.30;;;;;;5032730;28;20050;-76
2022/06/10 00:24:21;;;;;;;0.00;0.00;;;14.30;78.40;;;;;;5032182;28;20134;-76
2022/06/10 00:26:47;;;;;;;0.00;0.00;;;14.30;78.60;;;;;;5036101;28;20213;-76
2022/06/10 00:29:12;;;;;;;0.00;0.00;;;14.30;78.70;;;;;;5050204;28;20140;-76
2022/06/10 00:31:38;;;;;;;0.00;0.00;;;14.30;78.50;;;;;;5046157;28;20159;-76
2022/06/10 00:34:04;;;;;;;0.00;0.00;;;14.30;78.40;;;;;;5032460;28;20095;-76
2022/06/10 00:36:30;;;;;;;0.00;0.00;;;14.30;78.40;;;;;;5032990;28;20067;-76
2022/06/10 00:38:55;;;;;;;0.25;0.25;;;14.20;78.50;;;;;;5052591;28;20099;-76
2022/06/10 00:41:21;;;;;;;0.00;0.00;;;14.20;78.60;;;;;;5034778;28;20048;-76
2022/06/10 00:43:48;;;;;;;0.00;0.00;;;14.20;78.60;;;;;;5030661;28;20125;-76
2022/06/10 00:46:32;;;;;;;0.00;0.00;;;14.20;78.60;;;;;;5032773;28;20042;-76
2022/06/10 00:49:07;;;;;;;0.00;0.00;;;14.10;78.60;;;;;;5029249;28;20075;-76
2022/06/10 00:51:48;;;;;;;0.00;0.00;;;14.10;79.00;;;;;;5034665;28;20505;-76
2022/06/10 00:54:29;;;;;;;0.10;0.10;;;14.10;78.90;;;;;;5036630;28;20049;-76
2022/06/10 00:57:02;;;;;;;0.00;0.00;;;14.10;79.20;;;;;;5033193;28;20117;-76
2022/06/10 00:59:45;;;;;;;0.00;0.00;;;14.00;79.10;;;;;;5037537;28;20043;-76
2022/06/10 01:02:17;;;;;;;0.00;0.00;;;14.00;79.20;;;;;;5035335;28;20152;-76
2022/06/10 01:04:42;;;;;;;;;;;14.00;79.10;;;;;;5033217;28;20053;-75
2022/06/10 01:07:10;;;;;;;0.10;0.10;;;14.00;79.40;;;;;;5060317;28;20345;-76
2022/06/10 01:09:36;;;;;;;0.00;0.00;;;13.90;79.40;;;;;;5025684;28;20176;-76
2022/06/10 01:12:33;;;;;;;0.00;0.00;;;13.90;79.50;;;;;;5040161;28;20052;-76
2022/06/10 01:15:24;;;;;;;0.00;0.00;;;13.90;79.30;;;;;;5031465;28;20041;-76
2022/06/10 01:18:25;;;;;;;0.10;0.10;;;13.90;79.70;;;;;;5037020;28;20041;-76
2022/06/10 01:21:29;;;;;;;0.00;0.00;;;13.90;79.70;;;;;;5047806;28;20061;-75
2022/06/10 01:24:00;;;;;;;0.00;0.00;;;13.90;79.70;;;;;;5032882;28;20052;-75
2022/06/10 01:26:31;;;;;;;0.00;0.00;;;13.80;80.10;;;;;;5062668;28;20056;-76
2022/06/10 01:29:34;;;;;;;0.00;0.00;;;13.80;79.80;;;;;;5031067;28;20133;-76
2022/06/10 01:32:05;;;;;;;0.00;0.00;;;13.80;79.70;;;;;;5035371;28;20120;-76
2022/06/10 01:34:46;;;;;;;0.00;0.00;;;13.80;79.90;;;;;;5049498;28;20632;-75
2022/06/10 01:37:25;;;;;;;0.00;0.00;;;13.80;80.00;;;;;;5034577;28;20486;-76
2022/06/10 01:40:05;;;;;;;0.00;0.00;;;13.80;80.20;;;;;;5033709;28;20048;-76
2022/06/10 01:42:45;;;;;;;0.00;0.00;;;13.80;80.20;;;;;;5032041;28;20048;-76
2022/06/10 01:45:28;;;;;;;0.00;0.00;;;13.70;80.30;;;;;;5014509;28;20064;-75
2022/06/10 01:48:04;;;;;;;0.00;0.00;;;13.70;80.40;;;;;;5022258;28;20520;-75
2022/06/10 01:50:46;;;;;;;0.00;0.00;;;13.80;80.70;;;;;;5049755;28;20140;-76
2022/06/10 01:53:23;;;;;;;0.30;0.30;;;13.70;80.90;;;;;;5047914;28;20050;-76
2022/06/10 01:56:11;;;;;;;0.00;0.00;;;13.70;80.90;;;;;;5042763;28;20062;-76
2022/06/10 01:58:42;;;;;;;0.00;0.00;;;13.70;80.70;;;;;;5030159;28;20053;-76
2022/06/10 02:01:22;;;;;;;0.10;0.10;;;13.70;80.50;;;;;;5038955;28;20049;-76
2022/06/10 02:04:10;;;;;;;0.00;0.00;;;13.70;80.80;;;;;;5030623;28;20397;-76
2022/06/10 02:06:44;;;;;;;0.00;0.00;;;13.70;80.80;;;;;;5022110;28;20048;-76
2022/06/10 02:09:15;;;;;;;0.40;0.40;;;13.70;80.90;;;;;;5029805;28;20057;-76
2022/06/10 02:11:48;;;;;;;0.00;0.00;;;13.70;80.80;;;;;;5030058;28;20141;-76
2022/06/10 02:14:38;;;;;;;0.00;0.00;;;13.60;80.80;;;;;;5030471;28;20041;-76
2022/06/10 02:17:07;;;;;;;0.00;0.00;;;13.60;80.70;;;;;;5048589;28;20378;-76
2022/06/10 02:19:46;;;;;;;0.00;0.00;;;13.60;80.80;;;;;;5039496;28;20119;-76
2022/06/10 02:22:31;;;;;;;0.00;0.00;;;13.60;81.10;;;;;;5011169;28;20049;-75
2022/06/10 02:25:04;;;;;;;0.00;0.00;;;13.60;81.30;;;;;;5030862;28;20048;-76
2022/06/10 02:27:36;;;;;;;0.00;0.00;;;13.60;81.40;;;;;;5030748;28;20107;-75
2022/06/10 02:30:12;;;;;;;0.10;0.10;;;13.60;81.50;;;;;;5031136;28;20140;-76
2022/06/10 02:32:39;;;;;;;0.00;0.00;;;13.60;81.20;;;;;;5019090;28;20040;-76
2022/06/10 02:35:08;;;;;;;0.00;0.00;;;13.60;81.40;;;;;;5029964;28;20516;-76
2022/06/10 02:37:49;;;;;;;0.00;0.00;;;13.60;81.30;;;;;;5032483;28;20044;-76
2022/06/10 02:40:31;;;;;;;0.00;0.00;;;13.60;81.20;;;;;;5029645;28;20057;-76
2022/06/10 02:43:00;;;;;;;;;;;13.50;81.40;;;;;;5035465;28;20552;-76
2022/06/10 02:45:43;;;;;;;0.10;0.10;;;13.60;81.60;;;;;;5029746;28;19925;-76
2022/06/10 02:48:13;;;;;;;0.00;0.00;;;13.60;81.60;;;;;;5030206;28;20049;-76
2022/06/10 02:50:39;;;;;;;0.00;0.00;;;13.60;81.80;;;;;;5029109;28;20145;-76
2022/06/10 02:53:06;;;;;;;0.00;0.00;;;13.60;81.80;;;;;;5030969;28;20168;-76
2022/06/10 02:55:31;;;;;;;0.00;0.00;;;13.60;82.10;;;;;;5042055;28;20057;-76
2022/06/10 03:01:11;;;;;;;0.00;0.00;;;13.60;81.90;;;;;;5010433;28;20093;-76
2022/06/10 03:04:15;;;;;;;0.00;0.00;;;13.60;82.20;;;;;;5014292;28;20498;-76
2022/06/10 03:07:11;;;;;;;0.00;0.00;;;13.60;82.20;;;;;;5041946;28;20049;-76
2022/06/10 03:09:56;;;;;;;0.00;0.00;;;13.60;82.10;;;;;;5039079;28;20458;-75
2022/06/10 03:12:39;;;;;;;0.10;0.10;;;13.60;81.90;;;;;;5032698;28;20053;-76
2022/06/10 03:15:34;;;;;;;0.03;0.03;;;13.60;82.00;;;;;;5036899;28;20549;-76
2022/06/10 03:18:21;;;;;;;0.00;0.00;;;13.60;81.80;;;;;;5031004;28;20057;-76
2022/06/10 03:20:58;;;;;;;0.00;0.00;;;13.60;82.00;;;;;;5048083;28;20145;-75
2022/06/10 03:23:27;;;;;;;0.00;0.00;;;13.60;82.10;;;;;;5048295;28;20439;-75
2022/06/10 03:25:59;;;;;;;0.00;0.00;;;13.60;82.30;;;;;;5034228;28;20045;-74
2022/06/10 03:28:35;;;;;;;0.00;0.00;;;13.60;81.90;;;;;;5042177;28;20150;-75
2022/06/10 03:31:28;;;;;;;0.00;0.00;;;13.60;81.90;;;;;;5034394;28;20061;-75
2022/06/10 03:33:59;;;;;;;0.05;0.05;;;13.60;81.70;;;;;;5033231;28;20051;-75
2022/06/10 03:36:26;;;;;;;0.00;0.00;;;13.60;81.70;;;;;;5038265;28;20111;-75
2022/06/10 03:38:53;;;;;;;0.00;0.00;;;13.60;81.70;;;;;;5041488;28;20048;-75
2022/06/10 03:41:26;;;;;;;0.00;0.00;;;13.60;81.70;;;;;;5033858;28;20049;-75
2022/06/10 03:43:54;;;;;;;0.00;0.00;;;13.60;81.70;;;;;;5035863;28;20045;-75
2022/06/10 03:46:23;;;;;;;0.00;0.00;;;13.60;81.70;;;;;;5032901;28;20494;-75
2022/06/10 03:48:50;;;;;;;0.00;0.00;;;13.60;81.90;;;;;;5032720;28;20080;-75
2022/06/10 03:51:17;;;;;;;0.00;0.00;;;13.60;81.80;;;;;;5042054;28;20052;-74
2022/06/10 03:53:44;;;;;;;0.00;0.00;;;13.60;81.80;;;;;;5034829;28;20912;-75
2022/06/10 03:56:11;;;;;;;0.00;0.00;;;13.60;81.80;;;;;;5032076;28;20442;-76
2022/06/10 03:58:38;;;;;;;0.03;0.03;;;13.60;82.00;;;;;;5045054;28;20572;-76
2022/06/10 04:01:04;;;;;;;0.00;0.00;;;13.60;82.10;;;;;;5052596;28;20088;-75
2022/06/10 04:03:29;;;;;;;0.00;0.00;;;13.70;82.10;;;;;;5043410;28;20548;-75
2022/06/10 04:05:55;;;;;;;0.00;0.00;;;13.60;82.00;;;;;;5035053;28;20515;-75
2022/06/10 04:08:21;;;;;;;0.00;0.00;;;13.70;81.90;;;;;;5031417;28;20046;-75
2022/06/10 04:10:47;;;;;;;0.00;0.00;;;13.70;82.20;;;;;;5034928;28;20183;-75
2022/06/10 04:13:17;;;;;;;0.00;0.00;;;13.80;82.00;;;;;;5033724;28;20132;-76
2022/06/10 04:15:44;;;;;;;0.00;0.00;;;13.80;82.10;;;;;;5056636;28;20130;-76
2022/06/10 04:18:10;;;;;;;0.00;0.00;;;13.80;82.30;;;;;;5031701;28;20525;-75
2022/06/10 04:20:38;;;;;;;0.00;0.00;;;13.90;82.70;;;;;;5042808;28;20494;-76
2022/06/10 04:23:04;;;;;;;0.00;0.00;;;13.90;82.80;;;;;;5036207;28;20060;-76
2022/06/10 04:25:32;;;;;;;0.00;0.00;;;13.90;82.40;;;;;;5031722;28;20045;-76
2022/06/10 04:27:58;;;;;;;0.00;0.00;;;14.00;82.70;;;;;;5040323;28;20045;-75
2022/06/10 04:30:30;;;;;;;0.00;0.00;;;14.00;82.50;;;;;;5031509;28;20591;-76
2022/06/10 04:32:57;;;;;;;0.10;0.10;;;14.00;82.70;;;;;;5041168;28;20128;-76
2022/06/10 04:35:24;;;;;;;0.00;0.00;;;14.10;82.60;;;;;;5030564;28;20406;-75
2022/06/10 04:37:50;;;;;;;0.00;0.00;;;14.10;82.60;;;;;;5020121;28;20042;-75
2022/06/10 04:40:19;;;;;;;0.00;0.00;;;14.10;82.60;;;;;;5017651;28;20044;-75
2022/06/10 04:42:46;;;;;;;0.00;0.00;;;14.10;82.50;;;;;;5030776;28;20038;-75
2022/06/10 04:45:13;;;;;;;0.00;0.00;;;14.10;82.40;;;;;;5029468;28;20048;-77
2022/06/10 04:47:39;;;;;;;0.52;0.52;;;14.10;82.50;;;;;;5005667;28;20045;-77
2022/06/10 04:50:07;;;;;;;0.00;0.00;;;14.10;83.00;;;;;;5022545;28;20068;-75
2022/06/10 04:52:34;;;;;;;0.00;0.00;;;14.10;83.00;;;;;;5032962;28;20037;-75
2022/06/10 04:55:00;;;;;;;0.00;0.00;;;14.20;83.10;;;;;;5035220;28;20422;-76
2022/06/10 04:57:26;;;;;;;0.00;0.00;;;14.20;83.00;;;;;;5030577;28;20056;-75
2022/06/10 04:59:52;;;;;;;0.00;0.00;;;14.20;83.00;;;;;;5030560;28;20041;-75
2022/06/10 05:02:18;;;;;;;0.00;0.00;;;14.30;83.60;;;;;;5030173;28;20049;-75
2022/06/10 05:04:43;;;;;;;0.00;0.00;;;14.30;83.40;;;;;;5030449;28;20080;-76
2022/06/10 05:07:09;;;;;;;0.10;0.10;;;14.40;83.50;;;;;;5029495;28;20409;-76
2022/06/10 05:09:35;;;;;;;0.00;0.00;;;14.40;83.50;;;;;;5029218;28;20041;-76
2022/06/10 05:12:00;;;;;;;0.00;0.00;;;14.50;83.50;;;;;;5030689;28;20045;-75
2022/06/10 05:14:26;;;;;;;0.00;0.00;;;14.50;83.30;;;;;;5030671;28;20034;-75
2022/06/10 05:16:52;;;;;;;0.00;0.00;;;14.60;83.60;;;;;;5030644;28;20418;-75
2022/06/10 05:19:17;;;;;;;0.00;0.00;;;14.60;83.80;;;;;;5042798;28;20085;-75
2022/06/10 05:21:43;;;;;;;0.00;0.00;;;14.60;83.80;;;;;;5041176;28;20074;-76
2022/06/10 05:24:08;;;;;;;0.00;0.00;;;14.60;83.90;;;;;;5029683;28;20045;-74
2022/06/10 05:26:34;;;;;;;0.00;0.00;;;14.80;83.70;;;;;;5037226;28;20392;-76
2022/06/10 05:29:00;;;;;;;0.00;0.00;;;14.80;84.20;;;;;;5025095;28;20045;-75
2022/06/10 05:31:26;;;;;;;0.00;0.00;;;14.80;84.00;;;;;;5029237;28;20049;-75
2022/06/10 05:36:36;;;;;;;0.00;0.00;;;14.80;84.10;;;;;;5026262;28;20048;-74
2022/06/10 05:39:04;;;;;;;0.00;0.00;;;14.80;84.50;;;;;;5025362;28;20052;-72
2022/06/10 05:44:14;;;;;;;0.00;0.00;;;14.80;84.70;;;;;;5020546;28;20554;-69
2022/06/10 05:46:40;;;;;;;0.00;0.00;;;14.90;84.70;;;;;;5030256;28;20197;-69
2022/06/10 05:49:06;;;;;;;0.10;0.10;;;14.90;84.90;;;;;;5042109;28;20037;-69
2022/06/10 05:51:32;;;;;;;0.00;0.00;;;14.90;84.90;;;;;;5035300;28;20444;-69
2022/06/10 05:53:58;;;;;;;0.00;0.00;;;15.00;85.10;;;;;;5024789;28;20096;-69
2022/06/10 05:56:23;;;;;;;0.35;0.35;;;15.00;85.50;;;;;;5042560;28;20034;-71
2022/06/10 05:58:49;;;;;;;0.00;0.00;;;15.00;85.80;;;;;;5030139;28;20121;-70
2022/06/10 06:01:15;;;;;;;0.00;0.00;;;15.10;85.60;;;;;;5037548;28;20037;-70
2022/06/10 06:03:41;;;;;;;0.00;0.00;;;15.10;85.60;;;;;;5014037;28;20137;-70
2022/06/10 06:06:08;;;;;;;0.00;0.00;;;15.10;85.70;;;;;;5023372;28;20034;-72
2022/06/10 06:08:35;;;;;;;0.00;0.00;;;15.10;85.60;;;;;;5031549;28;20498;-69
2022/06/10 06:11:01;;;;;;;0.00;0.00;;;15.10;85.60;;;;;;5033972;28;20064;-69
2022/06/10 06:13:27;;;;;;;0.00;0.00;;;15.10;85.60;;;;;;5029105;28;20049;-69
2022/06/10 06:15:52;;;;;;;0.00;0.00;;;15.20;86.20;;;;;;5028169;28;20055;-69
2022/06/10 06:18:18;;;;;;;2.72;0.45;;;15.20;86.20;;;;;;5029298;28;20041;-69
2022/06/10 06:20:43;;;;;;;0.00;0.00;;;15.10;86.00;;;;;;5028620;28;20037;-69
2022/06/10 06:23:09;;;;;;;0.00;0.00;;;15.10;86.80;;;;;;5029162;28;20045;-70
2022/06/10 06:25:34;;;;;;;0.00;0.00;;;15.10;86.40;;;;;;5028757;28;20768;-69
2022/06/10 06:28:00;;;;;;;0.00;0.00;;;15.10;86.30;;;;;;5029437;28;20087;-70
2022/06/10 06:30:32;;;;;;;0.00;0.00;;;15.10;86.70;;;;;;5028722;28;20037;-69
2022/06/10 06:33:00;;;;;;;0.00;0.00;;;15.10;87.10;;;;;;5028495;28;20589;-70
2022/06/10 06:35:25;;;;;;;0.30;0.30;;;15.10;87.30;;;;;;5028303;28;20050;-70
2022/06/10 06:37:51;;;;;;;0.10;0.10;;;15.10;87.20;;;;;;5029088;28;20047;-70
2022/06/10 06:40:18;;;;;;;0.00;0.00;;;15.10;87.20;;;;;;5029264;28;20469;-69
2022/06/10 06:42:44;;;;;;;0.15;0.15;;;15.10;86.90;;;;;;5038314;28;20049;-70
2022/06/10 06:45:11;;;;;;;0.00;0.00;;;15.10;87.50;;;;;;5029225;28;20077;-70
2022/06/10 06:47:38;;;;;;;0.00;0.00;;;15.10;87.50;;;;;;5032140;28;20049;-70
2022/06/10 06:50:04;;;;;;;0.00;0.00;;;15.20;87.80;;;;;;5049094;28;20041;-70
2022/06/10 06:52:30;;;;;;;0.20;0.20;;;15.20;88.00;;;;;;5028906;28;20068;-69
2022/06/10 06:54:56;;;;;;;0.10;0.10;;;15.10;88.00;;;;;;5042358;28;20044;-70
2022/06/10 06:57:22;;;;;;;0.00;0.00;;;15.20;88.20;;;;;;5037908;28;20068;-69
2022/06/10 06:59:47;;;;;;;0.00;0.00;;;15.20;88.30;;;;;;5028593;28;20038;-69
2022/06/10 07:02:13;;;;;;;0.10;0.10;;;15.20;88.10;;;;;;5029160;28;20466;-69
2022/06/10 07:04:38;;;;;;;0.00;0.00;;;15.20;88.10;;;;;;5029843;28;20044;-69
2022/06/10 07:07:05;;;;;;;0.00;0.00;;;15.30;88.10;;;;;;5029204;28;20033;-69
2022/06/10 07:09:30;;;;;;;0.00;0.00;;;15.30;88.40;;;;;;5029160;28;20502;-70
2022/06/10 07:11:56;;;;;;;0.00;0.00;;;15.40;88.60;;;;;;5028539;28;20076;-69
2022/06/10 07:14:22;;;;;;;0.00;0.00;;;15.50;88.70;;;;;;5028729;28;21384;-69
2022/06/10 07:16:52;;;;;;;0.00;0.00;;;15.50;89.10;;;;;;5036567;28;20037;-70
2022/06/10 07:19:19;;;;;;;0.00;0.00;;;15.50;89.40;;;;;;5030779;28;20041;-69
2022/06/10 07:21:45;;;;;;;0.00;0.00;;;15.60;89.30;;;;;;5029042;28;20041;-71
2022/06/10 07:24:11;;;;;;;0.00;0.00;;;15.60;89.30;;;;;;5027990;28;20568;-70
2022/06/10 07:26:37;;;;;;;0.00;0.00;;;15.60;89.20;;;;;;5042291;28;20058;-70
2022/06/10 07:29:03;;;;;;;0.00;0.00;;;15.70;89.00;;;;;;5049029;28;20091;-70
2022/06/10 07:31:29;;;;;;;0.85;0.47;;;15.70;89.10;;;;;;5048792;28;20629;-71
2022/06/10 07:33:55;;;;;;;0.00;0.00;;;15.70;89.10;;;;;;5034604;28;20053;-70
2022/06/10 07:36:20;;;;;;;0.00;0.00;;;15.70;89.60;;;;;;5028120;28;20052;-72
2022/06/10 07:38:46;;;;;;;0.00;0.00;;;15.70;89.40;;;;;;5028499;28;20091;-68
2022/06/10 07:43:56;;;;;;;0.20;0.20;;;15.70;89.60;;;;;;5029657;28;20383;-68
2022/06/10 07:46:22;;;;;;;1.15;0.43;;;15.70;89.70;;;;;;5031285;28;20037;-67
2022/06/10 07:48:48;;;;;;;0.00;0.00;;;15.80;89.60;;;;;;5021496;28;20398;-67
2022/06/10 07:51:15;;;;;;;0.00;0.00;;;15.80;89.10;;;;;;5021095;28;20045;-67
2022/06/10 07:53:41;;;;;;;0.00;0.00;;;15.80;89.30;;;;;;5035342;28;20427;-68
2022/06/10 07:56:08;;;;;;;0.00;0.00;;;15.80;89.30;;;;;;5029496;28;20112;-68
2022/06/10 07:58:33;;;;;;;0.00;0.00;;;15.90;89.70;;;;;;5028465;28;20688;-69
2022/06/10 08:00:59;;;;;;;0.00;0.00;;;15.90;89.30;;;;;;5028219;28;20038;-68
2022/06/10 08:03:26;;;;;;;0.00;0.00;;;15.90;89.60;;;;;;5028064;28;20072;-68
2022/06/10 08:05:52;;;;;;;0.00;0.00;;;15.90;89.60;;;;;;5026072;28;20128;-68
2022/06/10 08:08:20;;;;;;;0.00;0.00;;;16.00;89.50;;;;;;5034125;28;20033;-68
2022/06/10 08:10:46;;;;;;;0.00;0.00;;;16.00;89.50;;;;;;5030380;28;20578;-68
2022/06/10 08:13:13;;;;;;;0.43;0.43;;;16.00;89.30;;;;;;5049826;28;20506;-68
2022/06/10 08:15:39;;;;;;;0.10;0.10;;;16.10;89.20;;;;;;5032656;28;20049;-68
2022/06/10 08:18:06;;;;;;;0.00;0.00;;;16.10;88.90;;;;;;5034882;28;20047;-69
2022/06/10 08:23:24;;;;;;;0.00;0.00;;;16.10;89.10;;;;;;5032555;28;20045;-68
2022/06/10 08:25:50;;;;;;;0.00;0.00;;;16.20;88.90;;;;;;5036634;28;20052;-68
2022/06/10 08:28:16;;;;;;;0.00;0.00;;;16.20;88.80;;;;;;5034406;28;20045;-68
2022/06/10 08:30:41;;;;;;;0.00;0.00;;;16.30;88.50;;;;;;5028221;28;20080;-68
2022/06/10 08:33:08;;;;;;;0.00;0.00;;;16.30;88.50;;;;;;5025900;28;20037;-67
2022/06/10 08:35:36;;;;;;;0.00;0.00;;;16.40;88.40;;;;;;5035905;28;20049;-68
2022/06/10 08:38:03;;;;;;;0.00;0.00;;;16.40;88.30;;;;;;5030961;28;20516;-68
2022/06/10 08:41:00;;;;;;;0.00;0.00;;;16.30;88.00;;;;;;5029072;28;20044;-69
2022/06/10 08:43:59;;;;;;;0.00;0.00;;;16.30;87.70;;;;;;5026374;28;20134;-69
2022/06/10 08:46:41;;;;;;;0.00;0.00;;;16.30;87.40;;;;;;5049992;28;20084;-69
2022/06/10 08:49:28;;;;;;;0.00;0.00;;;16.30;87.20;;;;;;5027177;28;20099;-68
2022/06/10 08:52:08;;;;;;;0.00;0.00;;;16.30;87.10;;;;;;5033683;28;20498;-69
2022/06/10 08:54:49;;;;;;;0.00;0.00;;;16.40;87.00;;;;;;5036774;28;20042;-68
2022/06/10 08:57:35;;;;;;;0.00;0.00;;;16.40;86.90;;;;;;5030041;28;20467;-69
2022/06/10 09:00:02;;;;;;;0.00;0.00;;;16.40;86.80;;;;;;5027543;28;20044;-69
2022/06/10 09:02:33;;;;;;;0.22;0.22;;;16.50;86.70;;;;;;5037131;28;20418;-68
2022/06/10 09:05:10;;;;;;;0.00;0.00;;;16.60;86.70;;;;;;5042126;28;20506;-68
2022/06/10 09:07:47;;;;;;;0.20;0.20;;;16.70;86.60;;;;;;5020950;28;20155;-69
2022/06/10 09:10:19;;;;;;;0.00;0.00;;;16.70;86.30;;;;;;5024008;28;20045;-68
2022/06/10 09:13:11;;;;;;;0.00;0.00;;;16.90;86.30;;;;;;5044607;28;20087;-68
2022/06/10 09:15:53;;;;;;;0.00;0.00;;;17.10;86.00;;;;;;5025880;28;20107;-69
2022/06/10 09:18:25;;;;;;;;;;;17.30;85.50;;;;;;5030419;28;20132;-69
2022/06/10 09:21:14;;;;;;;0.00;0.00;;;17.30;85.10;;;;;;5030147;28;20035;-69
2022/06/10 09:23:43;;;;;;;1.27;0.40;;;17.40;84.70;;;;;;5028655;28;20065;-70
2022/06/10 09:26:19;;;;;;;0.00;0.00;;;17.40;84.20;;;;;;5030846;28;20037;-69
2022/06/10 09:28:45;;;;;;;0.00;0.00;;;17.50;84.00;;;;;;5029624;28;20511;-70
2022/06/10 09:31:33;;;;;;;0.00;0.00;;;17.50;83.80;;;;;;5033536;28;20084;-68
2022/06/10 09:34:28;;;;;;;0.25;0.25;;;17.50;83.40;;;;;;5030590;28;20155;-68
2022/06/10 09:37:12;;;;;;;0.00;0.00;;;17.60;83.40;;;;;;5041116;28;20049;-68
2022/06/10 09:42:57;;;;;;;0.05;0.05;;;17.50;83.00;;;;;;5030230;28;20405;-67
2022/06/10 09:46:00;;;;;;;0.00;0.00;;;17.40;82.90;;;;;;5039259;28;20045;-69
2022/06/10 09:48:57;;;;;;;0.22;0.22;;;17.40;83.10;;;;;;5046892;28;20041;-68
2022/06/10 09:51:38;;;;;;;1.50;1.33;;;17.40;83.30;;;;;;5033650;28;20087;-68
2022/06/10 09:54:18;;;;;;;0.00;0.00;;;17.40;83.20;;;;;;5034738;28;20494;-67
2022/06/10 09:56:55;;;;;;;0.00;0.00;;;17.50;83.40;;;;;;5034461;28;20524;-67
2022/06/10 09:59:42;;;;;;;0.00;0.00;;;17.60;83.30;;;;;;5030955;28;20053;-70
2022/06/10 10:02:19;;;;;;;0.00;0.00;;;17.60;83.40;;;;;;5022511;28;20417;-70
2022/06/10 10:04:55;;;;;;;0.22;0.22;;;17.70;83.40;;;;;;5030099;28;20042;-70
2022/06/10 10:07:41;;;;;;;0.08;0.08;;;17.70;83.30;;;;;;5029976;28;20049;-70
2022/06/10 10:10:28;;;;;;;0.00;0.00;;;17.70;83.20;;;;;;5034529;28;20085;-71
2022/06/10 10:13:13;;;;;;;0.00;0.00;;;17.70;83.50;;;;;;5033039;28;20524;-70
2022/06/10 10:15:50;;;;;;;0.00;0.00;;;17.70;83.70;;;;;;5050140;28;20083;-70
2022/06/10 10:18:39;;;;;;;0.00;0.00;;;17.70;83.90;;;;;;5028199;28;20034;-70
2022/06/10 10:21:14;;;;;;;0.88;0.85;;;17.80;83.70;;;;;;5029618;28;20502;-70
2022/06/10 10:23:46;;;;;;;0.00;0.00;;;17.80;83.90;;;;;;5029589;28;20033;-68
2022/06/10 10:26:37;;;;;;;0.00;0.00;;;17.90;84.00;;;;;;5029063;28;20830;-68
2022/06/10 10:29:20;;;;;;;0.20;0.20;;;18.00;83.70;;;;;;5029411;28;20042;-67
2022/06/10 10:31:59;;;;;;;0.77;0.65;;;17.90;83.90;;;;;;5032426;28;20299;-66
2022/06/10 10:34:27;;;;;;;0.00;0.00;;;17.80;84.40;;;;;;5033022;28;20049;-67
2022/06/10 10:36:59;;;;;;;0.43;0.43;;;17.80;85.10;;;;;;5018275;28;20124;-67
2022/06/10 10:39:36;;;;;;;0.00;0.00;;;17.90;85.00;;;;;;5029458;28;20088;-67
2022/06/10 10:42:12;;;;;;;0.03;0.03;;;18.10;85.40;;;;;;5029104;28;20037;-67
2022/06/10 10:44:42;;;;;;;2.65;1.85;;;18.20;84.70;;;;;;5029222;28;20049;-68
2022/06/10 10:47:11;;;;;;;0.00;0.00;;;18.30;84.00;;;;;;5028802;28;20523;-68
2022/06/10 10:49:39;;;;;;;0.10;0.10;;;18.50;83.00;;;;;;5028914;28;20506;-68
2022/06/10 10:52:23;;;;;;;3.10;1.42;;;18.60;82.30;;;;;;5029027;28;20087;-67
2022/06/10 10:54:53;;;;;;;0.08;0.08;;;18.70;82.40;;;;;;5030614;28;20060;-67
2022/06/10 10:57:26;;;;;;;0.00;0.00;;;18.80;82.20;;;;;;5029334;28;20037;-67
2022/06/10 11:00:11;;;;;;;0.13;0.13;;;18.90;81.90;;;;;;5047545;28;20049;-68
2022/06/10 11:02:53;;;;;;;0.00;0.00;;;18.90;80.30;;;;;;5031349;28;20052;-67
2022/06/10 11:05:32;;;;;;;0.00;0.00;;;18.90;80.20;;;;;;5043608;28;20043;-68
2022/06/10 11:08:19;;;;;;;0.00;0.00;;;18.90;80.60;;;;;;5037947;28;20052;-67
2022/06/10 11:11:21;;;;;;;0.00;0.00;;;18.90;80.30;;;;;;5036174;28;20084;-67
2022/06/10 11:13:49;;;;;;;;;;;19.00;80.60;;;;;;5029344;28;20053;-67
2022/06/10 11:16:23;;;;;;;0.00;0.00;;;19.20;80.70;;;;;;5028636;28;19944;-68
2022/06/10 11:18:52;;;;;;;0.00;0.00;;;19.40;79.30;;;;;;5031054;28;20033;-67
2022/06/10 11:21:27;;;;;;;0.22;0.22;;;19.60;78.80;;;;;;5035076;28;20041;-67
2022/06/10 11:23:56;;;;;;;0.08;0.08;;;19.70;77.40;;;;;;5040305;28;20401;-67
2022/06/10 11:26:25;;;;;;;1.08;1.02;;;19.90;77.30;;;;;;5048717;28;20094;-67
2022/06/10 11:28:59;;;;;;;0.05;0.05;;;20.00;76.20;;;;;;5032584;28;20132;-67
2022/06/10 11:31:30;;;;;;;0.00;0.00;;;20.10;76.00;;;;;;5029993;28;20080;-67
2022/06/10 11:33:58;;;;;;;1.08;0.70;;;20.10;75.60;;;;;;5028473;28;20052;-67
2022/06/10 11:36:36;;;;;;;0.10;0.10;;;20.20;75.60;;;;;;5031876;28;20045;-67
2022/06/10 11:39:27;;;;;;;1.88;0.70;;;20.20;73.80;;;;;;5027100;28;20580;-65
2022/06/10 11:42:15;;;;;;;0.40;0.40;;;20.10;74.70;;;;;;5028128;28;20144;-66
2022/06/10 11:44:52;;;;;;;1.45;1.08;;;20.00;75.70;;;;;;5009997;28;20046;-67
2022/06/10 11:47:33;;;;;;;0.43;0.43;;;19.90;75.70;;;;;;5023870;28;20049;-66
2022/06/10 11:50:06;;;;;;;1.88;0.77;;;19.90;75.50;;;;;;5031451;28;20601;-66
2022/06/10 11:52:47;;;;;;;0.00;0.00;;;20.00;76.20;;;;;;5031034;28;20084;-66
2022/06/10 11:55:18;;;;;;;;;;;20.30;75.30;;;;;;5032108;28;20462;-67
2022/06/10 12:00:49;;;;;;;0.00;0.00;;;20.50;74.70;;;;;;5032370;28;20050;-66
2022/06/10 12:03:32;;;;;;;0.00;0.00;;;20.50;73.60;;;;;;5032159;28;20049;-67
2022/06/10 12:06:07;;;;;;;0.00;0.00;;;20.50;74.10;;;;;;5031617;28;21035;-66
2022/06/10 12:08:58;;;;;;;0.30;0.30;;;20.30;74.40;;;;;;5031677;28;20129;-67
2022/06/10 12:11:36;;;;;;;0.00;0.00;;;20.20;74.30;;;;;;5030495;28;20081;-66
2022/06/10 12:14:05;;;;;;;0.00;0.00;;;20.10;74.20;;;;;;5028035;28;20071;-66
2022/06/10 12:16:31;;;;;;;0.00;0.00;;;19.90;73.00;;;;;;5031055;28;20048;-67
2022/06/10 12:18:58;;;;;;;0.00;0.00;;;19.70;74.30;;;;;;5030165;28;20402;-67
2022/06/10 12:21:26;;;;;;;0.30;0.30;;;19.60;74.90;;;;;;5023306;28;20055;-68
2022/06/10 12:23:52;;;;;;;0.05;0.05;;;19.50;75.50;;;;;;5032017;28;20064;-66
2022/06/10 12:26:30;;;;;;;0.10;0.10;;;19.40;76.20;;;;;;5031501;28;20046;-67
2022/06/10 12:29:03;;;;;;;0.00;0.00;;;19.40;75.60;;;;;;5031427;28;20525;-67
2022/06/10 12:31:51;;;;;;;0.00;0.00;;;19.40;75.50;;;;;;5012056;28;20049;-66
2022/06/10 12:34:30;;;;;;;0.00;0.00;;;19.30;74.90;;;;;;5012028;28;20042;-66
2022/06/10 12:37:03;;;;;;;0.00;0.00;;;19.30;75.90;;;;;;5023755;28;20041;-67
2022/06/10 12:39:41;;;;;;;0.10;0.10;;;19.50;76.40;;;;;;5031026;28;20041;-66
2022/06/10 12:42:16;;;;;;;0.00;0.00;;;19.50;76.20;;;;;;5031459;28;20176;-67
2022/06/10 12:44:50;;;;;;;0.00;0.00;;;19.60;76.10;;;;;;5031535;28;20045;-67
2022/06/10 12:47:21;;;;;;;0.00;0.00;;;19.60;75.70;;;;;;5031369;28;20120;-68
2022/06/10 12:49:54;;;;;;;;;;;19.80;75.10;;;;;;5032820;28;20041;-68
2022/06/10 12:52:38;;;;;;;0.22;0.22;;;19.90;75.40;;;;;;5030771;28;20705;-68
2022/06/10 12:55:13;;;;;;;0.00;0.00;;;20.00;73.20;;;;;;5030665;28;20415;-67
2022/06/10 12:57:41;;;;;;;0.00;0.00;;;20.00;72.70;;;;;;5031435;28;20415;-69
2022/06/10 13:00:36;;;;;;;0.00;0.00;;;20.10;72.60;;;;;;5030828;28;20037;-67
2022/06/10 13:03:31;;;;;;;0.00;0.00;;;20.10;70.80;;;;;;5028269;28;20151;-67
2022/06/10 13:05:57;;;;;;;0.00;0.00;;;20.10;68.90;;;;;;5030129;28;20053;-67
2022/06/10 13:08:34;;;;;;;0.00;0.00;;;20.10;66.70;;;;;;5031028;28;20045;-67
2022/06/10 13:11:03;;;;;;;0.00;0.00;;;20.00;68.30;;;;;;5030383;28;20164;-67
2022/06/10 13:13:29;;;;;;;0.85;0.85;;;20.10;69.20;;;;;;5031067;28;20076;-68
2022/06/10 13:16:16;;;;;;;5.38;0.55;;;20.10;67.90;;;;;;5030967;28;20471;-68
2022/06/10 13:18:53;;;;;;;0.00;0.00;;;20.10;67.00;;;;;;5030561;28;20033;-68
2022/06/10 13:21:36;;;;;;;0.00;0.00;;;20.10;65.70;;;;;;5030572;28;20038;-68
2022/06/10 13:24:01;;;;;;;3.15;0.90;;;20.20;65.90;;;;;;5030466;28;20040;-69
2022/06/10 13:26:29;;;;;;;0.00;0.00;;;20.10;66.50;;;;;;5046155;28;20498;-69
2022/06/10 13:29:11;;;;;;;0.13;0.13;;;20.30;67.00;;;;;;5030894;28;20116;-67
2022/06/10 13:31:49;;;;;;;0.00;0.00;;;20.50;66.30;;;;;;5030033;28;20056;-67
2022/06/10 13:34:22;;;;;;;0.20;0.20;;;20.70;66.90;;;;;;5030052;28;20397;-67
2022/06/10 13:37:00;;;;;;;0.43;0.43;;;20.80;65.40;;;;;;5025522;28;20402;-67